KBBW/BBW METAR and TAF weather

Enter ICAO airport designator
Station Type Date Time Source
KBBW METAR 2020/08/07 12:53 UTC NOAA

KBBW 071253Z AUTO 15007KT 4SM BR OVC002 22/21 A2990 RMK AO2 RAE01B25E35 SLP101 P0000 T02170211


Station Type Date Time Source
KBBW Decoded METAR 2020/08/07 12:53 UTC NOAA

BROKEN BOW MUNICIPAL AIRPORT, NE, United States (KBBW) 41-26N 099-38W
Aug 07, 2020 - 08:53 AM EDT / 2020.08.07 1253 UTC
Wind: from the SSE (150 degrees) at 8 MPH (7 KT):0
Visibility: 4 mile(s):0
Sky conditions: overcast
Weather: mist
Precipitation last hour: A trace
Temperature: 71.1 F (21.7 C)
Dew Point: 70.0 F (21.1 C)
Relative Humidity: 96%
Pressure (altimeter): 29.9 in. Hg (1012 hPa)
ob: KBBW 071253Z AUTO 15007KT 4SM BR OVC002 22/21 A2990 RMK AO2 RAE01B25E35 SLP101 P0000 T02170211
cycle: 13

Station Type Date Time Source
KBBW TAF UTC NOAA

Error!

Example: see airport list